Details From LTAG - Incirlik Ab
To LEMO - Moron Ab
Flight Number -
Tags Generated
Created
Modified
Stats Distance 1,951 nm / 3,614 km
Max Altitude 0 ft / 0 m
Waypoints 10
Social Downloads 1
Likes 0
Share VATSIM

Download

Looking for another format? Having issues loading an existing format? Contact us
Advertisement - Login to hide

Notes

Generated

Route

LTAG EKSEN VEXOL VARDI CRN05 GIANO GENIO VSJ02 MRNT LEMO

ID Type Via Altitude Latitude Longitude Leg Dist Tot Dist Heading (true) Name
O LTAG APT - 0 ft / 0 m 36.99372˚ 35.41216˚ - 0 nm - -
EKSEN FIX - 0 ft / 0 m 37.89056˚ 30.67028˚ 232 nm 232 nm 285° / 282° -
VEXOL FIX - 0 ft / 0 m 38.34889˚ 26.19944˚ 213 nm 445 nm 279° / 276° -
VARDI FIX - 0 ft / 0 m 38.67194˚ 21.95111˚ 200 nm 645 nm 277° / 274° -
CRN05 FIX - 0 ft / 0 m 38.91491˚ 17.09203˚ 227 nm 873 nm 275° / 272° -
GIANO FIX - 0 ft / 0 m 38.86917˚ 12.44750˚ 217 nm 1090 nm 271° / 268° -
GENIO FIX - 0 ft / 0 m 38.29363˚ 3.14781˚ 437 nm 1528 nm 268° / 263° -
VSJ02 FIX - 0 ft / 0 m 37.79149˚ -0.79228˚ 188 nm 1717 nm 262° / 260° -
MRNT FIX - 0 ft / 0 m 37.17319˚ -5.61964˚ 233 nm 1950 nm 262° / 259° -
O LEMO APT - 0 ft / 0 m 37.15965˚ -5.62289˚ 0 nm 1951 nm 191° / 191° -

Altitude Profile

Advertisement - Login to hide

Weather


0- 5 10 15 20 25 30 35+ Temperature / ° C

Clouds and Precipitation
Forecast for 2017-12-18 00:00 UTC. Updated 26 minutes ago

Ground ~20,000 ft ~40,000 ft Winds

LTAG

Details ICAO LTAG
Name INCIRLIK AB
Region Turkey
Timezone Europe/Istanbul (UTC+3.0)
Stats Elevation 238 ft / 73 m (AMSL)
Location 37.002008° 35.425810°
Runways 1
Magnetic Variation 5.362° E

METAR

LTAG 172320Z 03005KT 9999 FEW035 BKN100 10/08 Q1020 NOSIG

Decode

TAF

Not found

Departure Runways

ID Width Length Bearing (true) Bearing (mag) Surface Threshold Offset Overrun Length
05 148 ft / 45 m 9,995 ft / 3,047 m 52.76° 47.40° Concrete 0 ft / 0 m 484 ft / 148 m
23 148 ft / 45 m 9,995 ft / 3,047 m 232.78° 227.42° Concrete 0 ft / 0 m 540 ft / 165 m

LEMO

Details ICAO LEMO (OZP)
Name MORON AB
Region Spain
Timezone Europe/Madrid (UTC+1.0)
Stats Elevation 285 ft / 87 m (AMSL)
Location 37.174890° -5.616018°
Runways 1
Magnetic Variation 1.209° W

METAR

LEMO 172300Z 05007KT CAVOK 05/01 Q1031 NOSIG

Decode

TAF

Not found

Destination Runways

ID Width Length Bearing (true) Bearing (mag) Surface Threshold Offset Overrun Length
02 200 ft / 61 m 11,820 ft / 3,603 m 19.75° 20.96° Asphalt 0 ft / 0 m 1,000 ft / 305 m
20 200 ft / 61 m 11,820 ft / 3,603 m 199.76° 200.97° Asphalt 0 ft / 0 m 1,000 ft / 305 m

Approach Navaids

Runway Type Ident Frequency Range Bearing (true) Bearing (mag) Slope Elevation
20 Localiser IMRF 109.70 MHz 18 nm / 33 km 199.71° 200.91° - 295 ft / 90 m (AMSL)
20 Glidescope IMRF 109.70 MHz 10 nm / 19 km 199.76° 200.97° 3.00° 346 ft / 105 m (AMSL)